Time;durP1;ratioP1;P1;durP2;ratioP2;P2;SDS_P1;SDS_P2;PMS_P1;PMS_P2;Temp;Humidity;BMP_temperature;BMP_pressure;BME280_temperature;BME280_humidity;BME280_pressure;Samples;Min_cycle;Max_cycle;Signal;HPM_P1;HPM_P2
2022/08/30 00:01:03;;;;;;;3.90;2.50;;;;;;;;;;5056882;28;20079;-74
2022/08/30 00:03:48;;;;;;;3.97;2.45;;;;;;;;;;5068064;28;20115;-75
2022/08/30 00:06:15;;;;;;;3.33;2.70;;;;;;;;;;5067385;28;20044;-76
2022/08/30 00:08:42;;;;;;;4.57;2.20;;;;;;;;;;5065603;28;20029;-74
2022/08/30 00:11:10;;;;;;;3.13;2.30;;;;;;;;;;5056677;28;20025;-74
2022/08/30 00:13:37;;;;;;;4.90;2.42;;;;;;;;;;5076770;28;20016;-75
2022/08/30 00:16:05;;;;;;;4.68;2.35;;;;;;;;;;5070250;28;20033;-74
2022/08/30 00:18:32;;;;;;;7.53;2.50;;;;;;;;;;5066739;28;20028;-75
2022/08/30 00:20:59;;;;;;;5.18;3.65;;;;;;;;;;5060503;28;20485;-75
2022/08/30 00:23:25;;;;;;;5.00;2.40;;;;;;;;;;5057710;28;20029;-74
2022/08/30 00:25:52;;;;;;;4.93;2.17;;;;;;;;;;5056504;28;20162;-75
2022/08/30 00:28:18;;;;;;;8.88;2.45;;;;;;;;;;5067590;28;20154;-75
2022/08/30 00:30:45;;;;;;;5.30;2.70;;;;;;;;;;5064052;28;20074;-75
2022/08/30 00:33:11;;;;;;;5.75;2.53;;;;;;;;;;5078204;28;20022;-74
2022/08/30 00:35:38;;;;;;;7.93;2.45;;;;;;;;;;5072881;28;20056;-74
2022/08/30 00:38:05;;;;;;;6.45;2.95;;;;;;;;;;5063289;28;20012;-76
2022/08/30 00:40:31;;;;;;;6.20;2.83;;;;;;;;;;5056089;28;20024;-75
2022/08/30 00:42:58;;;;;;;6.03;2.70;;;;;;;;;;5059130;28;20487;-76
2022/08/30 00:45:29;;;;;;;5.18;2.25;;;;;;;;;;5064353;28;20033;-75
2022/08/30 00:47:56;;;;;;;5.63;2.45;;;;;;;;;;5061823;28;20110;-73
2022/08/30 00:50:25;;;;;;;6.97;2.20;;;;;;;;;;5064836;28;20044;-75
2022/08/30 00:52:53;;;;;;;5.15;2.40;;;;;;;;;;5081230;28;20021;-75
2022/08/30 00:55:20;;;;;;;6.35;2.90;;;;;;;;;;5069264;28;20025;-73
2022/08/30 00:57:48;;;;;;;6.03;2.70;;;;;;;;;;5056872;28;20124;-74
2022/08/30 01:00:15;;;;;;;6.72;2.72;;;;;;;;;;5053125;28;20031;-75
2022/08/30 01:02:41;;;;;;;9.77;2.60;;;;;;;;;;5054474;28;20033;-74
2022/08/30 01:05:09;;;;;;;5.32;2.50;;;;;;;;;;5061772;28;20365;-74
2022/08/30 01:07:36;;;;;;;11.38;3.40;;;;;;;;;;5064744;28;20047;-75
2022/08/30 01:10:02;;;;;;;6.07;2.55;;;;;;;;;;5060654;28;20094;-74
2022/08/30 01:12:29;;;;;;;3.33;2.50;;;;;;;;;;5063302;28;20025;-74
2022/08/30 01:14:55;;;;;;;8.40;3.20;;;;;;;;;;5058040;28;20116;-75
2022/08/30 01:17:21;;;;;;;8.57;2.65;;;;;;;;;;5062809;28;20098;-75
2022/08/30 01:19:59;;;;;;;5.88;3.33;;;;;;;;;;5065207;28;20070;-76
2022/08/30 01:22:30;;;;;;;7.15;2.60;;;;;;;;;;5066325;28;20025;-75
2022/08/30 01:24:57;;;;;;;4.60;2.67;;;;;;;;;;5059090;28;20025;-75
2022/08/30 01:27:24;;;;;;;7.80;2.95;;;;;;;;;;5065358;28;20162;-75
2022/08/30 01:29:51;;;;;;;6.78;2.90;;;;;;;;;;5078903;28;20060;-75
2022/08/30 01:32:25;;;;;;;4.30;2.72;;;;;;;;;;5064648;28;20066;-74
2022/08/30 01:34:51;;;;;;;6.32;3.20;;;;;;;;;;5062000;28;20021;-74
2022/08/30 01:37:21;;;;;;;6.45;2.63;;;;;;;;;;5064912;28;20100;-75
2022/08/30 01:39:47;;;;;;;5.70;2.70;;;;;;;;;;5065460;28;20027;-74
2022/08/30 01:42:16;;;;;;;5.35;3.40;;;;;;;;;;5068335;28;20012;-75
2022/08/30 01:44:42;;;;;;;5.35;3.15;;;;;;;;;;5082623;28;20107;-75
2022/08/30 01:47:09;;;;;;;4.65;2.75;;;;;;;;;;5065678;28;20024;-74
2022/08/30 01:49:35;;;;;;;6.28;3.15;;;;;;;;;;5074244;28;20021;-74
2022/08/30 01:52:01;;;;;;;5.03;2.70;;;;;;;;;;5072985;28;20369;-73
2022/08/30 01:54:27;;;;;;;5.80;2.75;;;;;;;;;;5066784;28;20091;-74
2022/08/30 01:56:53;;;;;;;8.40;3.20;;;;;;;;;;5060653;28;20024;-74
2022/08/30 01:59:19;;;;;;;6.55;3.05;;;;;;;;;;5064322;28;20020;-74
2022/08/30 02:01:45;;;;;;;6.88;2.80;;;;;;;;;;5068261;28;20032;-75
2022/08/30 02:04:13;;;;;;;8.65;3.17;;;;;;;;;;5068905;28;20023;-74
2022/08/30 02:06:40;;;;;;;5.47;2.58;;;;;;;;;;5060814;28;20481;-75
2022/08/30 02:09:06;;;;;;;7.50;3.22;;;;;;;;;;5066099;28;20032;-75
2022/08/30 02:11:33;;;;;;;10.25;3.45;;;;;;;;;;5063422;28;20025;-75
2022/08/30 02:13:59;;;;;;;6.97;2.90;;;;;;;;;;5082083;28;20020;-75
2022/08/30 02:16:25;;;;;;;8.88;3.47;;;;;;;;;;5067227;28;20021;-74
2022/08/30 02:18:53;;;;;;;5.80;3.28;;;;;;;;;;5068728;28;20017;-74
2022/08/30 02:21:19;;;;;;;5.30;3.25;;;;;;;;;;5068810;28;20030;-74
2022/08/30 02:23:45;;;;;;;7.15;3.70;;;;;;;;;;5068038;28;20768;-75
2022/08/30 02:26:12;;;;;;;8.18;3.47;;;;;;;;;;5072569;28;20029;-74
2022/08/30 02:28:38;;;;;;;6.75;3.40;;;;;;;;;;5071726;28;20024;-74
2022/08/30 02:31:05;;;;;;;8.63;3.47;;;;;;;;;;5068605;28;20033;-74
2022/08/30 02:33:31;;;;;;;7.63;3.13;;;;;;;;;;5070350;28;20052;-74
2022/08/30 02:35:57;;;;;;;9.48;3.83;;;;;;;;;;5069071;28;20024;-74
2022/08/30 02:38:23;;;;;;;14.18;3.30;;;;;;;;;;5072749;28;20082;-75
2022/08/30 02:40:50;;;;;;;5.13;3.20;;;;;;;;;;5063212;28;20060;-74
2022/08/30 02:43:16;;;;;;;6.43;3.10;;;;;;;;;;5067263;28;20509;-74
2022/08/30 02:45:42;;;;;;;10.35;3.85;;;;;;;;;;5071114;28;20025;-75
2022/08/30 02:48:08;;;;;;;5.28;2.90;;;;;;;;;;5084681;28;20081;-75
2022/08/30 02:50:34;;;;;;;7.32;2.95;;;;;;;;;;5069391;28;20041;-75
2022/08/30 02:53:00;;;;;;;7.68;3.70;;;;;;;;;;5076757;28;20021;-75
2022/08/30 02:55:27;;;;;;;6.32;3.08;;;;;;;;;;5062683;28;20017;-74
2022/08/30 02:57:53;;;;;;;7.35;2.85;;;;;;;;;;5065242;28;20088;-75
2022/08/30 03:00:20;;;;;;;9.35;3.03;;;;;;;;;;5070931;28;20477;-75
2022/08/30 03:02:46;;;;;;;9.50;4.15;;;;;;;;;;5063279;28;20029;-74
2022/08/30 03:05:13;;;;;;;8.38;3.58;;;;;;;;;;5069151;28;20025;-74
2022/08/30 03:07:40;;;;;;;8.63;3.17;;;;;;;;;;5068863;28;20078;-74
2022/08/30 03:10:06;;;;;;;7.60;3.33;;;;;;;;;;5067609;28;20090;-75
2022/08/30 03:12:32;;;;;;;8.63;3.45;;;;;;;;;;5067873;28;20020;-75
2022/08/30 03:14:59;;;;;;;4.85;3.03;;;;;;;;;;5062124;28;20033;-75
2022/08/30 03:17:25;;;;;;;10.60;3.22;;;;;;;;;;5066058;28;20017;-74
2022/08/30 03:19:52;;;;;;;11.57;2.90;;;;;;;;;;5064440;28;20033;-74
2022/08/30 03:22:18;;;;;;;5.20;2.65;;;;;;;;;;5064482;28;20033;-75
2022/08/30 03:24:45;;;;;;;13.02;4.18;;;;;;;;;;5066280;28;20060;-74
2022/08/30 03:27:12;;;;;;;13.35;2.90;;;;;;;;;;5065466;28;20020;-74
2022/08/30 03:29:38;;;;;;;12.18;3.38;;;;;;;;;;5068454;28;20037;-74
2022/08/30 03:32:04;;;;;;;6.82;2.70;;;;;;;;;;5070907;28;20029;-75
2022/08/30 03:34:31;;;;;;;14.68;3.65;;;;;;;;;;5076594;28;20106;-74
2022/08/30 03:37:00;;;;;;;5.57;3.20;;;;;;;;;;5055785;28;20024;-75
2022/08/30 03:39:26;;;;;;;6.97;3.13;;;;;;;;;;5067875;28;20626;-75
2022/08/30 03:41:53;;;;;;;8.95;2.90;;;;;;;;;;5068897;28;20032;-74
2022/08/30 03:44:20;;;;;;;13.30;3.97;;;;;;;;;;5064326;28;20521;-74
2022/08/30 03:46:46;;;;;;;5.25;3.40;;;;;;;;;;5064236;28;20032;-74
2022/08/30 03:49:12;;;;;;;6.70;2.80;;;;;;;;;;5066077;28;20521;-74
2022/08/30 03:51:38;;;;;;;5.70;2.50;;;;;;;;;;5066546;28;20068;-73
2022/08/30 03:54:04;;;;;;;10.70;3.17;;;;;;;;;;5066259;28;20913;-75
2022/08/30 03:56:30;;;;;;;6.25;2.90;;;;;;;;;;5070410;28;20099;-74
2022/08/30 03:58:57;;;;;;;7.35;3.10;;;;;;;;;;5067211;28;20085;-74
2022/08/30 04:01:23;;;;;;;6.20;2.88;;;;;;;;;;5066775;28;20028;-74
2022/08/30 04:03:49;;;;;;;8.68;3.42;;;;;;;;;;5069008;28;20481;-75
2022/08/30 04:06:15;;;;;;;6.13;3.00;;;;;;;;;;5069946;28;20025;-75
2022/08/30 04:08:43;;;;;;;8.70;3.20;;;;;;;;;;5059459;28;20033;-75
2022/08/30 04:11:09;;;;;;;6.03;2.95;;;;;;;;;;5068823;28;20033;-74
2022/08/30 04:13:35;;;;;;;7.43;3.10;;;;;;;;;;5062027;28;20034;-75
2022/08/30 04:16:02;;;;;;;8.80;2.80;;;;;;;;;;5070971;28;20075;-74
2022/08/30 04:18:28;;;;;;;10.73;4.10;;;;;;;;;;5086976;28;20056;-74
2022/08/30 04:20:54;;;;;;;8.20;3.78;;;;;;;;;;5075708;28;20029;-74
2022/08/30 04:23:21;;;;;;;6.15;3.30;;;;;;;;;;5051528;28;20076;-74
2022/08/30 04:25:47;;;;;;;5.95;3.35;;;;;;;;;;5061060;28;20028;-74
2022/08/30 04:28:13;;;;;;;10.00;3.88;;;;;;;;;;5070406;28;20342;-75
2022/08/30 04:30:40;;;;;;;7.85;4.05;;;;;;;;;;5063412;28;20032;-74
2022/08/30 04:33:06;;;;;;;6.05;3.50;;;;;;;;;;5071943;28;20025;-75
2022/08/30 04:35:33;;;;;;;4.80;3.20;;;;;;;;;;5067094;28;20082;-74
2022/08/30 04:37:59;;;;;;;7.55;3.40;;;;;;;;;;5064653;28;20017;-74
2022/08/30 04:40:25;;;;;;;6.70;3.17;;;;;;;;;;5063606;28;20079;-75
2022/08/30 04:42:53;;;;;;;6.32;3.80;;;;;;;;;;5074216;28;20025;-75
2022/08/30 04:45:19;;;;;;;9.23;4.13;;;;;;;;;;5075012;28;20086;-74
2022/08/30 04:47:46;;;;;;;7.28;3.70;;;;;;;;;;5063809;28;20103;-75
2022/08/30 04:50:13;;;;;;;8.10;3.40;;;;;;;;;;5064177;28;20052;-75
2022/08/30 04:52:39;;;;;;;15.30;5.95;;;;;;;;;;5066307;28;20024;-74
2022/08/30 04:55:06;;;;;;;12.20;3.95;;;;;;;;;;5066519;28;20025;-73
2022/08/30 04:57:33;;;;;;;7.85;3.60;;;;;;;;;;5067140;28;20525;-74
2022/08/30 04:59:59;;;;;;;9.48;3.63;;;;;;;;;;5065428;28;20081;-74
2022/08/30 05:02:25;;;;;;;9.52;4.55;;;;;;;;;;5068469;28;20024;-74
2022/08/30 05:07:36;;;;;;;7.30;3.70;;;;;;;;;;5067082;28;20044;-74
2022/08/30 05:10:02;;;;;;;5.47;3.40;;;;;;;;;;5065863;28;20064;-75
2022/08/30 05:12:28;;;;;;;4.88;3.58;;;;;;;;;;5067280;28;20025;-75
2022/08/30 05:14:57;;;;;;;10.25;3.80;;;;;;;;;;5061127;28;20027;-74
2022/08/30 05:17:23;;;;;;;6.65;4.10;;;;;;;;;;5069432;28;20434;-75
2022/08/30 05:19:49;;;;;;;7.25;3.28;;;;;;;;;;5069447;28;20033;-75
2022/08/30 05:22:15;;;;;;;7.00;3.70;;;;;;;;;;5079120;28;20104;-75
2022/08/30 05:24:41;;;;;;;10.70;4.30;;;;;;;;;;5072803;28;20025;-75
2022/08/30 05:27:08;;;;;;;6.07;3.85;;;;;;;;;;5064375;28;20017;-74
2022/08/30 05:29:34;;;;;;;8.80;3.58;;;;;;;;;;5065869;28;20389;-74
2022/08/30 05:32:00;;;;;;;11.88;4.38;;;;;;;;;;5073221;28;20036;-75
2022/08/30 05:34:29;;;;;;;8.13;3.75;;;;;;;;;;5068931;28;20024;-75
2022/08/30 05:36:55;;;;;;;5.07;4.18;;;;;;;;;;5060579;28;20028;-75
2022/08/30 05:39:21;;;;;;;8.40;4.05;;;;;;;;;;5071388;28;20066;-75
2022/08/30 05:41:47;;;;;;;12.73;5.03;;;;;;;;;;5078028;28;20033;-75
2022/08/30 05:44:13;;;;;;;9.75;3.88;;;;;;;;;;5087150;28;20093;-74
2022/08/30 05:46:44;;;;;;;8.52;5.47;;;;;;;;;;5069479;28;20060;-75
2022/08/30 05:49:10;;;;;;;6.30;3.92;;;;;;;;;;5067317;28;20075;-76
2022/08/30 05:51:39;;;;;;;6.63;3.97;;;;;;;;;;5064525;28;20055;-76
2022/08/30 05:54:05;;;;;;;6.70;3.55;;;;;;;;;;5070570;28;20017;-76
2022/08/30 05:56:33;;;;;;;6.10;3.95;;;;;;;;;;5070968;28;20036;-74
2022/08/30 05:59:00;;;;;;;7.32;4.68;;;;;;;;;;5064810;28;20028;-76
2022/08/30 06:01:26;;;;;;;5.85;3.70;;;;;;;;;;5069682;28;20036;-76
2022/08/30 06:03:53;;;;;;;5.85;3.90;;;;;;;;;;5066649;28;20481;-77
2022/08/30 06:06:20;;;;;;;6.30;3.67;;;;;;;;;;5070425;28;20025;-77
2022/08/30 06:08:47;;;;;;;6.18;4.38;;;;;;;;;;5062933;28;20397;-76
2022/08/30 06:11:14;;;;;;;7.15;3.60;;;;;;;;;;5078234;28;20016;-77
2022/08/30 06:13:41;;;;;;;6.63;4.30;;;;;;;;;;5069233;28;20060;-76
2022/08/30 06:16:07;;;;;;;7.60;3.92;;;;;;;;;;5070275;28;20017;-73
2022/08/30 06:18:33;;;;;;;8.63;3.75;;;;;;;;;;5063043;28;20370;-76
2022/08/30 06:20:59;;;;;;;5.40;3.83;;;;;;;;;;5070724;28;20741;-75
2022/08/30 06:23:25;;;;;;;4.80;3.60;;;;;;;;;;5072113;28;20063;-76
2022/08/30 06:25:51;;;;;;;5.45;3.42;;;;;;;;;;5072959;28;20040;-74
2022/08/30 06:28:18;;;;;;;5.50;3.55;;;;;;;;;;5070869;28;20044;-74
2022/08/30 06:30:44;;;;;;;8.40;3.70;;;;;;;;;;5073079;28;20448;-74
2022/08/30 06:33:10;;;;;;;6.53;3.10;;;;;;;;;;5068147;28;20377;-74
2022/08/30 06:35:36;;;;;;;5.47;3.75;;;;;;;;;;5069846;28;20483;-74
2022/08/30 06:38:03;;;;;;;4.70;3.22;;;;;;;;;;5070439;28;20124;-74
2022/08/30 06:40:29;;;;;;;4.65;3.40;;;;;;;;;;5070180;28;20029;-75
2022/08/30 06:42:55;;;;;;;5.63;3.20;;;;;;;;;;5059199;28;20032;-74
2022/08/30 06:45:22;;;;;;;7.22;2.90;;;;;;;;;;5065845;28;20036;-74
2022/08/30 06:47:48;;;;;;;6.20;2.85;;;;;;;;;;5079776;28;20049;-74
2022/08/30 06:50:15;;;;;;;6.38;3.50;;;;;;;;;;5071352;28;20051;-75
2022/08/30 06:52:42;;;;;;;6.40;3.03;;;;;;;;;;5067699;28;20108;-74
2022/08/30 06:55:09;;;;;;;4.05;3.42;;;;;;;;;;5063580;28;20466;-74
2022/08/30 06:57:36;;;;;;;5.15;2.72;;;;;;;;;;5060689;28;20021;-75
2022/08/30 07:00:02;;;;;;;7.97;2.97;;;;;;;;;;5063706;28;20547;-74
2022/08/30 07:02:28;;;;;;;5.60;2.85;;;;;;;;;;5068799;28;20076;-74
2022/08/30 07:04:54;;;;;;;6.82;3.22;;;;;;;;;;5060053;28;20057;-74
2022/08/30 07:07:20;;;;;;;7.85;3.47;;;;;;;;;;5058324;28;20029;-74
2022/08/30 07:09:47;;;;;;;4.07;2.75;;;;;;;;;;5070529;28;20400;-74
2022/08/30 07:12:14;;;;;;;3.40;3.10;;;;;;;;;;5069151;28;21474;-74
2022/08/30 07:14:41;;;;;;;4.53;3.40;;;;;;;;;;5062884;28;20895;-73
2022/08/30 07:19:52;;;;;;;4.72;2.92;;;;;;;;;;5061808;28;20048;-75
2022/08/30 07:22:19;;;;;;;6.18;2.97;;;;;;;;;;5061620;28;20017;-74
2022/08/30 07:24:45;;;;;;;5.43;2.92;;;;;;;;;;5070331;28;20028;-75
2022/08/30 07:27:11;;;;;;;8.18;3.88;;;;;;;;;;5068511;28;20147;-75
2022/08/30 07:29:37;;;;;;;6.40;3.40;;;;;;;;;;5066163;28;20049;-74
2022/08/30 07:32:04;;;;;;;5.90;3.25;;;;;;;;;;5075530;28;20409;-74
2022/08/30 07:34:30;;;;;;;4.95;3.30;;;;;;;;;;5070902;28;20453;-73
2022/08/30 07:36:57;;;;;;;5.75;3.47;;;;;;;;;;5071174;28;20481;-77
2022/08/30 07:39:24;;;;;;;9.50;3.50;;;;;;;;;;5070380;28;20020;-75
2022/08/30 07:41:50;;;;;;;6.05;2.88;;;;;;;;;;5069667;28;20033;-74
2022/08/30 07:44:17;;;;;;;6.97;3.10;;;;;;;;;;5069199;28;20020;-76
2022/08/30 07:46:43;;;;;;;6.05;3.13;;;;;;;;;;5070513;28;20025;-75
2022/08/30 07:49:11;;;;;;;3.75;2.60;;;;;;;;;;5067800;28;20059;-75
2022/08/30 07:51:38;;;;;;;3.88;2.60;;;;;;;;;;5073988;28;20377;-76
2022/08/30 07:54:04;;;;;;;5.50;2.92;;;;;;;;;;5069945;28;20443;-76
2022/08/30 07:56:30;;;;;;;4.80;2.58;;;;;;;;;;5073954;28;20085;-81
2022/08/30 07:58:56;;;;;;;4.70;2.50;;;;;;;;;;5072737;28;20027;-76
2022/08/30 08:01:23;;;;;;;3.78;3.10;;;;;;;;;;5069028;28;20033;-75
2022/08/30 08:03:49;;;;;;;5.32;2.40;;;;;;;;;;5071228;28;20028;-74
2022/08/30 08:06:16;;;;;;;2.65;2.13;;;;;;;;;;5072777;28;20048;-74
2022/08/30 08:08:44;;;;;;;2.30;2.00;;;;;;;;;;5069972;28;20086;-75
2022/08/30 08:11:14;;;;;;;2.45;2.10;;;;;;;;;;5067021;28;20039;-76
2022/08/30 08:13:42;;;;;;;3.33;2.10;;;;;;;;;;5076021;28;20489;-75
2022/08/30 08:16:08;;;;;;;2.33;1.90;;;;;;;;;;5075063;28;20021;-76
2022/08/30 08:18:34;;;;;;;3.53;2.00;;;;;;;;;;5071417;28;20056;-75
2022/08/30 08:21:01;;;;;;;2.28;1.80;;;;;;;;;;5077984;28;20032;-74
2022/08/30 08:23:27;;;;;;;2.05;1.60;;;;;;;;;;5073988;28;20039;-75
2022/08/30 08:25:53;;;;;;;3.33;1.90;;;;;;;;;;5074575;28;20036;-75
2022/08/30 08:28:20;;;;;;;3.22;1.60;;;;;;;;;;5077486;28;20123;-74
2022/08/30 08:30:46;;;;;;;2.00;1.70;;;;;;;;;;5073803;28;20068;-75
2022/08/30 08:33:13;;;;;;;2.42;1.73;;;;;;;;;;5077011;28;20066;-82
2022/08/30 08:35:40;;;;;;;2.92;1.60;;;;;;;;;;5061945;28;20062;-81
2022/08/30 08:38:06;;;;;;;2.45;1.65;;;;;;;;;;5078653;28;20031;-77
2022/08/30 08:40:37;;;;;;;2.58;1.80;;;;;;;;;;5077798;28;20053;-74
2022/08/30 08:43:09;;;;;;;4.13;1.65;;;;;;;;;;5081037;28;20392;-75
2022/08/30 08:45:39;;;;;;;5.00;1.67;;;;;;;;;;5075676;28;20036;-72
2022/08/30 08:48:09;;;;;;;1.55;1.40;;;;;;;;;;5072773;28;20033;-71
2022/08/30 08:50:35;;;;;;;1.50;1.40;;;;;;;;;;5076249;28;20044;-72
2022/08/30 08:55:54;;;;;;;1.85;1.50;;;;;;;;;;5075328;28;20055;-74
2022/08/30 08:58:25;;;;;;;2.28;1.50;;;;;;;;;;5079555;28;20029;-78
2022/08/30 09:00:51;;;;;;;3.90;1.45;;;;;;;;;;5082524;28;20114;-75
2022/08/30 09:03:20;;;;;;;1.70;1.60;;;;;;;;;;5092932;28;20029;-76
2022/08/30 09:05:46;;;;;;;3.25;1.50;;;;;;;;;;5087500;28;20049;-75
2022/08/30 09:08:14;;;;;;;2.97;1.75;;;;;;;;;;5078033;28;21354;-75
2022/08/30 09:10:43;;;;;;;3.58;1.67;;;;;;;;;;5081423;28;20039;-75
2022/08/30 09:13:09;;;;;;;1.50;1.40;;;;;;;;;;5079832;28;20052;-76
2022/08/30 09:15:36;;;;;;;1.90;1.55;;;;;;;;;;5071636;28;20095;-75
2022/08/30 09:18:07;;;;;;;1.75;1.50;;;;;;;;;;5075530;28;20071;-75
2022/08/30 09:20:40;;;;;;;3.83;1.60;;;;;;;;;;5075372;28;20032;-75
2022/08/30 09:23:15;;;;;;;1.10;1.10;;;;;;;;;;5080309;28;20791;-75
2022/08/30 09:25:52;;;;;;;2.25;1.55;;;;;;;;;;5074778;28;20539;-75
2022/08/30 09:28:21;;;;;;;3.13;1.50;;;;;;;;;;5078261;28;20028;-75
2022/08/30 09:31:02;;;;;;;1.52;1.42;;;;;;;;;;5086094;28;20032;-74
2022/08/30 09:33:28;;;;;;;2.03;1.45;;;;;;;;;;5081277;28;20457;-73
2022/08/30 09:35:54;;;;;;;1.50;1.40;;;;;;;;;;5071221;28;20025;-74
2022/08/30 09:38:34;;;;;;;1.50;1.40;;;;;;;;;;5073730;28;20381;-75
2022/08/30 09:41:02;;;;;;;1.42;1.30;;;;;;;;;;5078333;28;20028;-74
2022/08/30 09:43:32;;;;;;;4.38;1.52;;;;;;;;;;5080591;28;20035;-75
2022/08/30 09:45:58;;;;;;;1.50;1.40;;;;;;;;;;5078912;28;20505;-76
2022/08/30 09:48:24;;;;;;;1.45;1.35;;;;;;;;;;5068641;28;20082;-76
2022/08/30 09:50:56;;;;;;;1.50;1.40;;;;;;;;;;5074973;28;20110;-75
2022/08/30 09:53:24;;;;;;;1.63;1.48;;;;;;;;;;5072874;28;20030;-74
2022/08/30 09:55:54;;;;;;;1.40;1.30;;;;;;;;;;5081433;28;20541;-75
2022/08/30 09:58:32;;;;;;;2.22;1.40;;;;;;;;;;5075501;28;20034;-75
2022/08/30 10:01:08;;;;;;;1.58;1.45;;;;;;;;;;5084021;28;20275;-75
2022/08/30 10:03:51;;;;;;;1.42;1.33;;;;;;;;;;5082270;28;20065;-73
2022/08/30 10:06:20;;;;;;;2.97;1.50;;;;;;;;;;5081495;28;20024;-73
2022/08/30 10:09:00;;;;;;;3.17;1.20;;;;;;;;;;5077892;28;20039;-75
2022/08/30 10:11:46;;;;;;;1.30;1.30;;;;;;;;;;5085787;28;20038;-73
2022/08/30 10:14:31;;;;;;;1.60;1.33;;;;;;;;;;5084544;28;20029;-74
2022/08/30 10:17:06;;;;;;;1.40;1.30;;;;;;;;;;5083404;28;20686;-75
2022/08/30 10:19:32;;;;;;;;;;;;;;;;;;5084748;28;20016;-74
2022/08/30 10:22:01;;;;;;;1.50;1.40;;;;;;;;;;5079409;28;19923;-75
2022/08/30 10:24:33;;;;;;;2.80;1.50;;;;;;;;;;5082013;28;20020;-76
2022/08/30 10:27:26;;;;;;;2.25;1.40;;;;;;;;;;5078315;28;20046;-74
2022/08/30 10:30:06;;;;;;;1.55;1.45;;;;;;;;;;5079914;28;20107;-75
2022/08/30 10:32:42;;;;;;;2.65;1.70;;;;;;;;;;5079983;28;20035;-75
2022/08/30 10:35:14;;;;;;;1.85;1.50;;;;;;;;;;5082047;28;20092;-74
2022/08/30 10:37:43;;;;;;;1.50;1.40;;;;;;;;;;5083457;28;20027;-75
2022/08/30 10:43:21;;;;;;;1.52;1.42;;;;;;;;;;5020037;28;20083;-75
2022/08/30 10:45:48;;;;;;;2.10;1.63;;;;;;;;;;5070059;28;20032;-75
2022/08/30 10:48:23;;;;;;;2.17;1.80;;;;;;;;;;5084967;28;20075;-75
2022/08/30 10:50:52;;;;;;;1.70;1.60;;;;;;;;;;5072826;28;20048;-75
2022/08/30 10:53:21;;;;;;;2.17;1.65;;;;;;;;;;5078602;28;20024;-74
2022/08/30 10:55:59;;;;;;;1.58;1.48;;;;;;;;;;5079560;28;20024;-76
2022/08/30 10:58:25;;;;;;;2.15;1.70;;;;;;;;;;5053876;28;20059;-74
2022/08/30 11:00:52;;;;;;;6.28;2.60;;;;;;;;;;5076675;28;20033;-74
2022/08/30 11:03:30;;;;;;;1.70;1.60;;;;;;;;;;5074473;28;20027;-75
2022/08/30 11:06:02;;;;;;;1.70;1.60;;;;;;;;;;5078612;28;20036;-75
2022/08/30 11:08:44;;;;;;;2.20;1.80;;;;;;;;;;5078810;28;20078;-77
2022/08/30 11:11:13;;;;;;;2.17;1.85;;;;;;;;;;5096267;28;20040;-77
2022/08/30 11:13:40;;;;;;;1.70;1.60;;;;;;;;;;5079078;28;20032;-76
2022/08/30 11:16:14;;;;;;;2.33;1.55;;;;;;;;;;5080262;28;20024;-75
2022/08/30 11:18:57;;;;;;;2.35;1.80;;;;;;;;;;5076614;28;20024;-75
2022/08/30 11:21:31;;;;;;;1.80;1.70;;;;;;;;;;5078542;28;20024;-74
2022/08/30 11:23:59;;;;;;;2.63;1.67;;;;;;;;;;5082559;28;20024;-73
2022/08/30 11:26:44;;;;;;;1.80;1.60;;;;;;;;;;5076742;28;20030;-77
2022/08/30 11:29:31;;;;;;;2.75;1.40;;;;;;;;;;5078803;28;20817;-75
2022/08/30 11:32:18;;;;;;;3.38;1.70;;;;;;;;;;5093678;28;20032;-75
2022/08/30 11:34:44;;;;;;;2.55;1.50;;;;;;;;;;5065694;28;20021;-74
2022/08/30 11:37:29;;;;;;;2.55;1.77;;;;;;;;;;5078453;28;20029;-75
2022/08/30 11:39:57;;;;;;;1.77;1.50;;;;;;;;;;5079761;28;20020;-78
2022/08/30 11:42:27;;;;;;;1.70;1.50;;;;;;;;;;5077986;28;20099;-81
2022/08/30 11:45:13;;;;;;;2.80;1.80;;;;;;;;;;5076135;28;20017;-74
2022/08/30 11:47:46;;;;;;;2.55;1.70;;;;;;;;;;5078931;28;20409;-75
2022/08/30 11:50:14;;;;;;;1.63;1.52;;;;;;;;;;5082274;28;20040;-74
2022/08/30 11:52:40;;;;;;;3.70;1.73;;;;;;;;;;5078115;28;20071;-74
2022/08/30 11:55:15;;;;;;;4.05;1.77;;;;;;;;;;5075032;28;20021;-75
2022/08/30 11:57:41;;;;;;;;;;;;;;;;;;5076119;28;20160;-76
2022/08/30 12:00:26;;;;;;;1.80;1.52;;;;;;;;;;5072891;28;20061;-76
2022/08/30 12:03:01;;;;;;;1.98;1.77;;;;;;;;;;5074624;28;20028;-74
2022/08/30 12:05:27;;;;;;;;;;;;;;;;;;5078420;28;20862;-75
2022/08/30 12:07:58;;;;;;;2.63;1.60;;;;;;;;;;5071066;28;19916;-77
2022/08/30 12:10:36;;;;;;;3.72;2.58;;;;;;;;;;5075324;28;20080;-74
2022/08/30 12:13:02;;;;;;;1.70;1.60;;;;;;;;;;5070836;28;20097;-74
2022/08/30 12:15:48;;;;;;;2.47;1.52;;;;;;;;;;5081355;28;20035;-75
2022/08/30 12:18:26;;;;;;;1.70;1.60;;;;;;;;;;5056991;28;20029;-74
2022/08/30 12:20:53;;;;;;;1.63;1.50;;;;;;;;;;5080327;28;20020;-73
2022/08/30 12:23:24;;;;;;;2.13;1.60;;;;;;;;;;5064964;28;20028;-75
2022/08/30 12:25:50;;;;;;;3.13;1.80;;;;;;;;;;5074542;28;20039;-74
2022/08/30 12:28:20;;;;;;;2.15;1.60;;;;;;;;;;5093115;28;20039;-74
2022/08/30 12:30:47;;;;;;;1.65;1.55;;;;;;;;;;5075393;28;20563;-75
2022/08/30 12:33:14;;;;;;;2.40;1.52;;;;;;;;;;5074832;28;20190;-75
2022/08/30 12:35:43;;;;;;;2.33;1.65;;;;;;;;;;5076297;28;20020;-74
2022/08/30 12:38:16;;;;;;;4.32;1.70;;;;;;;;;;5077884;28;20169;-74
2022/08/30 12:40:50;;;;;;;1.60;1.50;;;;;;;;;;5076078;28;20028;-75
2022/08/30 12:43:22;;;;;;;2.45;1.80;;;;;;;;;;5079411;28;20808;-74
2022/08/30 12:45:49;;;;;;;2.92;1.70;;;;;;;;;;5070324;28;20445;-74
2022/08/30 12:48:17;;;;;;;2.75;1.70;;;;;;;;;;5071982;28;20068;-74
2022/08/30 12:50:52;;;;;;;3.63;1.80;;;;;;;;;;5075227;28;20047;-74
2022/08/30 12:53:32;;;;;;;2.22;1.70;;;;;;;;;;5079055;28;20771;-75
2022/08/30 12:56:04;;;;;;;1.60;1.50;;;;;;;;;;5076509;28;20092;-74
2022/08/30 12:58:40;;;;;;;1.70;1.60;;;;;;;;;;5074155;28;20024;-75
2022/08/30 13:01:25;;;;;;;2.28;1.58;;;;;;;;;;5080028;28;20111;-73
2022/08/30 13:03:56;;;;;;;1.77;1.50;;;;;;;;;;5077010;28;20064;-74
2022/08/30 13:06:44;;;;;;;1.73;1.63;;;;;;;;;;5075665;28;20016;-75
2022/08/30 13:09:28;;;;;;;1.63;1.52;;;;;;;;;;5075638;28;20111;-77
2022/08/30 13:11:55;;;;;;;1.63;1.50;;;;;;;;;;5074080;28;20033;-73
2022/08/30 13:14:39;;;;;;;1.60;1.50;;;;;;;;;;5078173;28;20111;-74
2022/08/30 13:17:24;;;;;;;1.50;1.40;;;;;;;;;;5074255;28;20054;-74
2022/08/30 13:20:04;;;;;;;1.73;1.63;;;;;;;;;;5072540;28;20032;-75
2022/08/30 13:22:32;;;;;;;1.50;1.40;;;;;;;;;;5076286;28;20052;-75
2022/08/30 13:24:58;;;;;;;1.60;1.50;;;;;;;;;;5070725;28;20065;-75
2022/08/30 13:27:26;;;;;;;1.60;1.50;;;;;;;;;;5080559;28;20028;-74
2022/08/30 13:29:52;;;;;;;2.28;1.60;;;;;;;;;;5072900;28;20032;-73
2022/08/30 13:32:19;;;;;;;1.63;1.50;;;;;;;;;;5074568;28;20032;-74
2022/08/30 13:34:45;;;;;;;1.80;1.60;;;;;;;;;;5084411;28;20028;-74
2022/08/30 13:37:14;;;;;;;1.73;1.63;;;;;;;;;;5078055;28;20047;-73
2022/08/30 13:39:40;;;;;;;2.55;1.40;;;;;;;;;;5077981;28;20028;-75
2022/08/30 13:42:06;;;;;;;2.45;1.60;;;;;;;;;;5078103;28;20028;-74
2022/08/30 13:44:32;;;;;;;2.17;1.50;;;;;;;;;;5080686;28;20030;-73
2022/08/30 13:46:59;;;;;;;1.85;1.25;;;;;;;;;;5080253;28;20035;-73
2022/08/30 13:49:30;;;;;;;1.65;1.50;;;;;;;;;;5078227;28;20016;-73
2022/08/30 13:51:56;;;;;;;2.20;1.70;;;;;;;;;;5078975;28;20044;-73
2022/08/30 13:54:23;;;;;;;1.48;1.15;;;;;;;;;;5075627;28;21028;-73
2022/08/30 13:56:50;;;;;;;2.42;1.50;;;;;;;;;;5074354;28;20028;-74
2022/08/30 13:59:16;;;;;;;1.85;1.52;;;;;;;;;;5082086;28;20382;-74
2022/08/30 14:01:43;;;;;;;1.65;1.55;;;;;;;;;;5080491;28;20123;-74
2022/08/30 14:04:09;;;;;;;2.45;1.50;;;;;;;;;;5078370;28;20032;-74
2022/08/30 14:06:35;;;;;;;1.70;1.50;;;;;;;;;;5084412;28;20020;-75
2022/08/30 14:09:04;;;;;;;3.15;1.65;;;;;;;;;;5079072;28;20035;-74
2022/08/30 14:11:30;;;;;;;2.28;1.15;;;;;;;;;;5080853;28;20024;-74
2022/08/30 14:13:56;;;;;;;1.50;1.30;;;;;;;;;;5083841;28;20576;-75
2022/08/30 14:16:22;;;;;;;1.98;1.58;;;;;;;;;;5078752;28;20025;-74
2022/08/30 14:18:48;;;;;;;2.28;1.60;;;;;;;;;;5079181;28;20035;-74
2022/08/30 14:21:14;;;;;;;3.00;1.55;;;;;;;;;;5078044;28;20035;-73
2022/08/30 14:23:40;;;;;;;2.63;1.63;;;;;;;;;;5078949;28;21429;-75
2022/08/30 14:26:10;;;;;;;4.05;1.80;;;;;;;;;;5084683;28;20096;-75
2022/08/30 14:28:37;;;;;;;2.70;1.67;;;;;;;;;;5079727;28;20024;-74
2022/08/30 14:31:03;;;;;;;2.53;1.67;;;;;;;;;;5077595;28;20028;-78
2022/08/30 14:33:29;;;;;;;3.65;1.60;;;;;;;;;;5081690;28;20027;-74
2022/08/30 14:35:55;;;;;;;1.95;1.55;;;;;;;;;;5077597;28;20031;-75
2022/08/30 14:38:21;;;;;;;1.67;1.58;;;;;;;;;;5073632;28;20024;-74
2022/08/30 14:40:47;;;;;;;2.00;1.60;;;;;;;;;;5072623;28;20036;-74
2022/08/30 14:43:13;;;;;;;1.63;1.50;;;;;;;;;;5073347;28;20058;-73
2022/08/30 14:45:40;;;;;;;2.13;1.45;;;;;;;;;;5079276;28;20028;-74
2022/08/30 14:48:08;;;;;;;1.70;1.60;;;;;;;;;;5059322;28;20056;-75
2022/08/30 14:50:37;;;;;;;2.13;1.92;;;;;;;;;;5077162;28;20139;-75
2022/08/30 14:53:04;;;;;;;4.65;1.70;;;;;;;;;;5080333;28;20103;-74
2022/08/30 14:55:32;;;;;;;2.67;1.60;;;;;;;;;;5080418;28;20431;-73
2022/08/30 14:57:59;;;;;;;1.65;1.55;;;;;;;;;;5074429;28;20892;-74
2022/08/30 15:00:25;;;;;;;2.30;1.60;;;;;;;;;;5079808;28;20150;-75
2022/08/30 15:02:51;;;;;;;1.30;1.20;;;;;;;;;;5095978;28;20043;-76